aviador You're here:

KLPR Decoded Metar

LORAIN/ELYRIA in OH, USA
Report Time2017-03-23 01:53:00
UTC Time2017-03-23 02:12:52
Flight Rules vfr VFR
WindCalm
Visibility9999 m
Phenomena:N/A
Clouds:N/A
Expected CloudBase > 2,800 ft AGL from Temp-Dew spread
CeilingNone
Temp-4°C (ISA -17)
Dew Point-11°C (59% RH)
AAT-7.1°C
QNH1035 hPa
Density Alt-2,060 ft
Elevation791 ft
Report Wrong Elevation
Raw Report
KLPR 230153Z AUTO 00000KT 10SM CLR M04/M11 A3055 RMK AO2 SLP356
T10441106=

Extra information for KLPR:More info

Metar Taf Metar & Taf Last 4 Metars F.Rules Stats Wind Profile Meteogram Temp Stats Airport Information Weather charts Add Link Nearby VenuesMetar ALERT Operation Metar Decoded Social comments

AIRNAV info for KLPR